S&P 500   3,841.47
DOW   30,996.98
QQQ   325.42
S&P 500   3,841.47
DOW   30,996.98
QQQ   325.42
S&P 500   3,841.47
DOW   30,996.98
QQQ   325.42
S&P 500   3,841.47
DOW   30,996.98
QQQ   325.42
Log in
NASDAQ:CDNS

Cadence Design Systems Institutional Ownership

$137.42
-1.20 (-0.87 %)
(As of 01/22/2021 12:00 AM ET)
Add
Compare
Today's Range
$137.04
Now: $137.42
$140.40
50-Day Range
$115.49
MA: $130.48
$140.10
52-Week Range
$51.39
Now: $137.42
$142.11
Volume1.40 million shs
Average Volume1.61 million shs
Market Capitalization$38.33 billion
P/E Ratio35.69
Dividend YieldN/A
Beta1.05

Institutional Ownership

Institutional Ownership Changes (13F Filings) for Cadence Design Systems (NASDAQ:CDNS)

Institutional Ownership Percentage: 83.86%

Institutional Buying and Selling by Quarter


Cadence Design Systems (NASDAQ CDNS) Institutional Buying and Selling

Reporting DateHedge FundShares HeldMarket Value% of PortfolioQuarterly Change in SharesOwnership in Company
1/22/2021International Assets Investment Management LLC207$28K0.0%N/A0.000%
1/22/2021Candriam Luxembourg S.C.A.190,470$25.99M0.2%-13.6%0.068%
1/22/2021BKD Wealth Advisors LLC4,588$0.63M0.0%+1.9%0.002%
1/21/2021Kinloch Capital LLC529$72K0.1%N/A0.000%
1/20/2021Pacer Advisors Inc.29,042$3.96M0.1%-26.4%0.010%
1/20/2021Spectrum Asset Management Inc. NB CA2,730$0.37M0.1%-29.6%0.001%
1/20/2021Kestra Advisory Services LLC2,754$0.37M0.0%+9,080.0%0.001%
1/20/2021MEAG MUNICH ERGO Kapitalanlagegesellschaft mbH18,018$2.44M0.6%+25.5%0.006%
1/20/2021Park Avenue Securities LLC6,552$0.89M0.0%+55.1%0.002%
1/20/2021JustInvest LLC4,149$0.57M0.1%+17.4%0.001%
1/19/2021Exchange Traded Concepts LLC3,103$0.42M0.0%+105.8%0.001%
1/19/2021Vivid Financial Management Inc.3,711$0.51M0.2%N/A0.001%
1/19/2021Mission Wealth Management LP5,345$0.73M0.0%+43.5%0.002%
1/19/2021MinichMacGregor Wealth Management LLC7,964$1.09M0.4%+11.9%0.003%
1/19/2021Ritholtz Wealth Management1,516$0.21M0.0%N/A0.001%
1/19/2021DNB Asset Management AS34,778$4.75M0.0%+6.8%0.012%
1/19/2021Hedeker Wealth LLC16,083$2.19M0.8%-0.6%0.006%
1/15/2021Bowling Portfolio Management LLC29,450$4.02M0.9%-6.1%0.011%
1/15/2021Clarius Group LLC2,834$0.39M0.0%+44.1%0.001%
1/14/2021Gateway Investment Advisers LLC195,707$26.70M0.3%-0.1%0.070%
1/14/2021Crossmark Global Holdings Inc.31,194$4.26M0.1%+20.9%0.011%
1/14/2021Ardevora Asset Management LLP476,786$65.05M1.0%-9.1%0.171%
1/14/2021Breiter Capital Management Inc.3,421$0.47M0.3%+68.9%0.001%
1/13/2021Raymond James Trust N.A.2,598$0.35M0.0%-4.8%0.001%
1/13/2021Strategic Investment Advisors MI3,313$0.45M0.1%+6.0%0.001%
1/13/2021IFM Investors Pty Ltd26,881$3.67M0.1%+16.8%0.010%
1/13/2021Contravisory Investment Management Inc.3,594$0.49M0.2%-11.6%0.001%
1/13/2021Orrstown Financial Services Inc.7,586$1.04M1.5%-16.4%0.003%
1/13/2021OneAscent Financial Services LLC8,699$1.19M0.5%N/A0.003%
1/13/2021Sowell Financial Services LLC3,250$0.44M0.0%-63.0%0.001%
1/13/2021XR Securities LLC1,849$0.25M0.0%N/A0.001%
1/13/2021Brookstone Capital Management1,708$0.23M0.0%N/A0.001%
1/12/2021CX Institutional365$50K0.0%+52.1%0.000%
1/12/2021Scout Investments Inc.68,842$9.39M0.2%N/A0.025%
1/12/2021TrimTabs Asset Management LLC15,541$2.08M1.2%-8.6%0.006%
1/11/2021Huntington National Bank486$66K0.0%+52.4%0.000%
1/11/2021Louisiana State Employees Retirement System29,500$4.02M0.1%+107.7%0.011%
1/11/2021Gateway Advisory LLC1,738$0.24M0.1%N/A0.001%
1/8/2021Wedge Capital Management L L P NC580,861$79.25M0.9%-14.8%0.208%
1/8/2021Diversified Trust Co5,380$0.73M0.0%+17.2%0.002%
1/8/2021State of Alaska Department of Revenue128,073$17.47M0.2%-0.4%0.046%
12/16/2020Wetherby Asset Management Inc.6,550$0.70M0.1%-7.3%0.002%
12/14/2020Strs Ohio31,646$3.37M0.0%-11.5%0.011%
12/10/2020Mercer Global Advisors Inc. ADV21,118$2.25M0.0%+168.6%0.008%
12/4/2020Sei Investments Co.159,756$17.01M0.0%+5.0%0.057%
12/4/2020Van ECK Associates Corp837,729$89.33M0.3%+24.9%0.300%
12/3/2020Brinker Capital Investments LLC9,206$0.98M0.0%N/A0.003%
11/25/2020Bay Colony Advisory Group Inc d b a Bay Colony Advisors1,900$0.20M0.1%N/A0.001%
11/23/2020Eudaimonia Partners LLC1,411$62K0.0%N/A0.001%
11/19/2020Advisor Partners LLC5,638$0.60M0.1%+2.2%0.002%
11/19/2020Jupiter Wealth Management LLC6,000$0.64M0.5%-33.3%0.002%
11/17/2020Public Employees Retirement System of Ohio144,020$15.36M0.1%-0.1%0.052%
11/17/2020Polar Asset Management Partners Inc.3,723$0.40M0.0%N/A0.001%
11/17/2020Voloridge Investment Management LLC301,307$32.13M0.3%+1,887.9%0.108%
11/17/2020Worldquant Millennium Advisors LLC164,035$17.49M0.4%-16.6%0.059%
11/17/2020California State Teachers Retirement System596,605$63.62M0.1%+1.7%0.214%
11/17/2020Jackson Square Capital LLC27,844$2.97M1.3%+18.0%0.010%
11/17/2020Schonfeld Strategic Advisors LLC42,676$4.55M0.1%+312.4%0.015%
11/17/2020Great West Life Assurance Co. Can497,314$53.01M0.1%+4.6%0.178%
11/17/2020Polar Capital LLP789,306$84.16M0.6%+97.0%0.283%
11/17/2020Captrust Financial Advisors8,441$0.92M0.0%+35.4%0.003%
11/17/2020Colony Group LLC9,046$0.97M0.0%-2.0%0.003%
11/16/2020Point72 Hong Kong Ltd10,087$1.08M0.1%N/A0.004%
11/16/2020Cubist Systematic Strategies LLC42,841$4.57M0.1%+571.4%0.015%
11/16/2020Point72 Asset Management L.P.100,227$10.69M0.1%+100.1%0.036%
11/16/2020AQR Capital Management LLC965,584$102.85M0.2%-43.0%0.346%
11/16/2020Lombard Odier Asset Management Europe Ltd79,156$8.44M0.5%+8.6%0.028%
11/16/2020Squarepoint Ops LLC66,717$7.11M0.1%N/A0.024%
11/16/2020State of Tennessee Treasury Department79,130$8.44M0.0%-54.7%0.028%
11/16/2020Eudaimonia Partners LLC1,411$62K0.0%N/A0.001%
11/16/2020Nuveen Asset Management LLC1,691,748$180.39M0.1%-6.6%0.607%
11/16/2020Oribel Capital Management LP104,700$11.16M0.9%-47.9%0.038%
11/16/2020ExodusPoint Capital Management LP32,773$3.50M0.1%+15.7%0.012%
11/16/2020A.R.T. Advisors LLC2,068$0.22M1.2%N/A0.001%
11/16/2020Polar Capital LLP789,306$84.16M0.6%+97.0%0.283%
11/16/2020Engineers Gate Manager LP6,837$0.73M0.0%+210.8%0.002%
11/16/2020Boothbay Fund Management LLC19,900$2.12M0.1%-48.5%0.007%
11/16/2020Gladstone Institutional Advisory LLC3,087$0.33M0.1%N/A0.001%
11/16/2020Oberweis Asset Management Inc.3,241$0.35M0.1%+5.3%0.001%
11/16/2020Alkeon Capital Management LLC5,556,760$592.52M1.1%+8.1%1.992%
11/16/2020Central Asset Investments & Management Holdings HK Ltd9,554$1.02M0.5%-16.6%0.003%
11/16/2020Vestcor Inc13,883$1.48M0.1%+22.0%0.005%
11/16/2020Advisors Asset Management Inc.1,960$0.21M0.0%-42.4%0.001%
11/16/2020Smithfield Trust Co.3,048$0.33M0.0%+25.7%0.001%
11/13/2020Public Sector Pension Investment Board33,814$3.61M0.0%+25.6%0.012%
11/13/2020Caisse DE Depot ET Placement DU Quebec15,800$1.69M0.0%-4.8%0.006%
11/13/2020Morgan Stanley556,384$59.33M0.0%-0.2%0.199%
11/13/2020Wetherby Asset Management Inc.6,577$0.70M0.1%-6.9%0.002%
11/13/2020Segall Bryant & Hamill LLC1,881$0.20M0.0%N/A0.001%
11/13/2020Truist Financial Corp34,338$3.66M0.0%-32.9%0.012%
11/13/2020C M Bidwell & Associates Ltd.1,979$0.21M0.2%-37.1%0.001%
11/13/2020Allianz Asset Management GmbH1,122,828$119.73M0.1%-7.8%0.403%
11/13/2020Oak Grove Capital LLC5,200$0.55M0.3%N/A0.002%
11/13/2020ProShare Advisors LLC250,829$26.75M0.1%+15.1%0.090%
11/13/2020Profund Advisors LLC21,626$2.31M0.1%-0.6%0.008%
11/13/2020Charles Schwab Investment Management Inc.1,301,178$138.75M0.1%-6.9%0.466%
11/13/2020First Allied Advisory Services Inc.13,405$1.43M0.0%+145.3%0.005%
11/13/2020Cetera Advisors LLC2,430$0.26M0.0%N/A0.001%
11/13/2020UBS Asset Management Americas Inc.1,792,850$191.17M0.1%-0.7%0.643%
11/13/2020Kinneret Advisory LLC13,783$1.47M0.2%-3.1%0.005%
(Data available from 1/1/2016 forward)

This page was last updated on 1/25/2021 by MarketBeat.com Staff

Enter your email address below to receive a concise daily summary of analysts' upgrades, downgrades and new coverage with MarketBeat.com's FREE daily email newsletter.